Time;durP1;ratioP1;P1;durP2;ratioP2;P2;SDS_P1;SDS_P2;PMS_P1;PMS_P2;Temp;Humidity;BMP_temperature;BMP_pressure;BME280_temperature;BME280_humidity;BME280_pressure;Samples;Min_cycle;Max_cycle;Signal;HPM_P1;HPM_P2
2022/05/11 00:01:26;;;;;;;16.05;8.13;;;12.10;99.90;;;;;;5057490;28;20119;-87
2022/05/11 00:03:53;;;;;;;12.40;6.97;;;12.10;99.90;;;;;;5056551;28;20049;-87
2022/05/11 00:06:19;;;;;;;17.77;7.93;;;12.10;99.90;;;;;;5057240;28;20114;-86
2022/05/11 00:08:44;;;;;;;16.77;6.85;;;12.20;99.90;;;;;;5056166;28;20041;-86
2022/05/11 00:11:10;;;;;;;14.05;7.40;;;12.30;99.90;;;;;;5057691;28;20083;-87
2022/05/11 00:13:36;;;;;;;19.13;7.03;;;12.30;99.90;;;;;;5057013;28;20045;-87
2022/05/11 00:16:02;;;;;;;15.55;7.00;;;12.30;99.90;;;;;;5055463;28;20041;-87
2022/05/11 00:18:27;;;;;;;13.15;6.97;;;12.30;99.90;;;;;;5056069;28;20048;-87
2022/05/11 00:20:53;;;;;;;20.10;7.28;;;12.40;99.90;;;;;;5056974;28;20041;-87
2022/05/11 00:23:19;;;;;;;13.15;6.95;;;12.50;99.90;;;;;;5056575;28;20045;-86
2022/05/11 00:25:45;;;;;;;11.32;6.45;;;12.50;99.90;;;;;;5056772;28;20049;-87
2022/05/11 00:28:11;;;;;;;14.25;7.00;;;12.50;99.90;;;;;;5057231;28;20049;-87
2022/05/11 00:30:36;;;;;;;14.13;7.13;;;12.50;99.90;;;;;;5057408;28;20064;-87
2022/05/11 00:33:02;;;;;;;13.23;6.90;;;12.50;99.90;;;;;;5057892;28;20041;-87
2022/05/11 00:35:33;;;;;;;20.80;6.75;;;12.50;99.90;;;;;;5056176;28;20049;-87
2022/05/11 00:37:59;;;;;;;14.23;7.03;;;12.50;99.90;;;;;;5055703;28;20493;-87
2022/05/11 00:40:25;;;;;;;15.48;7.10;;;12.50;99.90;;;;;;5056637;28;20432;-87
2022/05/11 00:42:51;;;;;;;12.10;7.43;;;12.50;99.90;;;;;;5056211;28;20048;-87
2022/05/11 00:45:17;;;;;;;14.63;7.03;;;12.50;99.90;;;;;;5055708;28;20080;-87
2022/05/11 00:47:55;;;;;;;12.40;7.15;;;12.60;99.90;;;;;;5057843;28;20048;-87
2022/05/11 00:50:28;;;;;;;13.07;6.68;;;12.60;99.90;;;;;;5056047;28;20076;-87
2022/05/11 00:53:09;;;;;;;13.30;6.93;;;12.50;99.90;;;;;;5056560;28;20052;-87
2022/05/11 00:55:41;;;;;;;12.63;7.13;;;12.50;99.90;;;;;;5056893;28;20393;-87
2022/05/11 00:58:27;;;;;;;11.45;6.40;;;12.50;99.90;;;;;;5058115;28;20060;-87
2022/05/11 01:00:53;;;;;;;12.45;7.10;;;12.60;99.90;;;;;;5055364;28;20453;-87
2022/05/11 01:03:28;;;;;;;16.15;6.53;;;12.60;99.90;;;;;;5056004;28;20044;-87
2022/05/11 01:05:54;;;;;;;15.05;6.80;;;12.60;99.90;;;;;;5054798;28;20159;-87
2022/05/11 01:08:21;;;;;;;15.90;6.80;;;12.60;99.90;;;;;;5056337;28;20045;-86
2022/05/11 01:10:48;;;;;;;10.90;6.60;;;12.60;99.90;;;;;;5056818;28;20072;-87
2022/05/11 01:13:15;;;;;;;16.80;7.45;;;12.60;99.90;;;;;;5056929;28;20055;-86
2022/05/11 01:15:45;;;;;;;13.63;6.53;;;12.60;99.90;;;;;;5055179;28;20120;-87
2022/05/11 01:18:11;;;;;;;10.85;5.55;;;12.60;99.90;;;;;;5057133;28;20057;-86
2022/05/11 01:20:37;;;;;;;9.73;5.68;;;12.60;99.90;;;;;;5056079;28;20032;-87
2022/05/11 01:23:37;;;;;;;11.48;5.80;;;12.60;99.90;;;;;;5056201;28;20045;-86
2022/05/11 01:26:03;;;;;;;14.18;6.00;;;12.70;99.90;;;;;;5055693;28;20472;-87
2022/05/11 01:28:28;;;;;;;8.18;4.97;;;12.70;99.90;;;;;;5055325;28;20090;-87
2022/05/11 01:31:09;;;;;;;11.07;5.63;;;12.70;99.90;;;;;;5038157;28;20091;-87
2022/05/11 01:33:37;;;;;;;8.88;4.82;;;12.70;99.90;;;;;;5054928;28;20047;-87
2022/05/11 01:36:28;;;;;;;11.93;5.43;;;12.70;99.90;;;;;;5055142;28;20554;-87
2022/05/11 01:39:02;;;;;;;8.98;4.80;;;12.70;99.90;;;;;;5054662;28;20725;-87
2022/05/11 01:41:40;;;;;;;10.60;5.45;;;12.70;99.90;;;;;;5038078;28;20092;-86
2022/05/11 01:44:11;;;;;;;12.48;5.22;;;12.60;99.90;;;;;;5055828;28;20076;-87
2022/05/11 01:46:38;;;;;;;14.07;4.88;;;12.60;99.90;;;;;;5055272;28;20388;-87
2022/05/11 01:49:05;;;;;;;12.48;5.32;;;12.70;99.90;;;;;;5058347;28;20040;-87
2022/05/11 01:51:30;;;;;;;15.85;5.10;;;12.60;99.90;;;;;;5065195;28;20045;-87
2022/05/11 01:53:56;;;;;;;10.75;5.20;;;12.60;99.90;;;;;;5044829;28;20102;-87
2022/05/11 01:56:23;;;;;;;9.48;5.07;;;12.60;99.90;;;;;;5063013;28;20053;-86
2022/05/11 02:01:29;;;;;;;10.98;5.90;;;12.60;99.90;;;;;;5061873;22;20054;-83
2022/05/11 02:03:54;;;;;;;13.27;5.75;;;12.60;99.90;;;;;;5038310;28;20132;-82
2022/05/11 02:09:06;;;;;;;11.65;4.95;;;12.50;99.90;;;;;;5057090;28;20049;-80
2022/05/11 02:11:32;;;;;;;10.75;5.15;;;12.40;99.90;;;;;;5073230;28;20033;-79
2022/05/11 02:13:58;;;;;;;9.35;5.03;;;12.40;99.90;;;;;;5049218;28;20048;-79
2022/05/11 02:16:24;;;;;;;11.45;5.63;;;12.30;99.90;;;;;;5037313;28;20410;-80
2022/05/11 02:18:50;;;;;;;14.20;5.53;;;12.30;99.90;;;;;;5048645;28;20053;-80
2022/05/11 02:21:16;;;;;;;12.60;5.28;;;12.30;99.90;;;;;;5052232;28;20084;-79
2022/05/11 02:23:42;;;;;;;15.23;6.00;;;12.30;99.90;;;;;;5051252;28;20056;-80
2022/05/11 02:26:11;;;;;;;11.68;5.45;;;12.20;99.90;;;;;;5036054;28;20457;-81
2022/05/11 02:28:38;;;;;;;15.52;5.47;;;12.30;99.90;;;;;;5036589;28;20044;-78
2022/05/11 02:31:05;;;;;;;9.20;5.32;;;12.30;99.90;;;;;;5035881;28;20067;-81
2022/05/11 02:33:31;;;;;;;8.82;5.40;;;12.20;99.90;;;;;;5035985;28;20409;-78
2022/05/11 02:35:57;;;;;;;9.57;5.30;;;12.30;99.90;;;;;;5035792;28;20056;-79
2022/05/11 02:38:29;;;;;;;10.80;6.03;;;12.30;99.90;;;;;;5035448;28;20089;-78
2022/05/11 02:40:55;;;;;;;10.60;5.57;;;12.30;99.90;;;;;;5034674;28;20038;-78
2022/05/11 02:43:21;;;;;;;10.95;5.53;;;12.30;99.90;;;;;;5019799;28;20057;-79
2022/05/11 02:45:48;;;;;;;8.73;4.85;;;12.40;99.90;;;;;;5014446;28;20108;-79
2022/05/11 02:48:17;;;;;;;10.10;5.65;;;12.40;99.90;;;;;;5022960;28;20037;-80
2022/05/11 02:50:49;;;;;;;8.13;4.93;;;12.40;99.90;;;;;;5055180;28;20560;-80
2022/05/11 02:53:15;;;;;;;9.27;5.15;;;12.40;99.90;;;;;;5015200;28;20050;-79
2022/05/11 02:55:47;;;;;;;12.73;4.70;;;12.40;99.90;;;;;;5015953;28;20041;-79
2022/05/11 02:58:15;;;;;;;13.73;5.10;;;12.50;99.90;;;;;;5015224;28;20042;-80
2022/05/11 03:00:44;;;;;;;7.45;4.07;;;12.40;99.90;;;;;;5018398;28;20058;-79
2022/05/11 03:03:11;;;;;;;10.15;4.53;;;12.50;99.90;;;;;;5039471;28;20512;-80
2022/05/11 03:05:38;;;;;;;11.30;4.43;;;12.50;99.90;;;;;;5039371;28;20042;-79
2022/05/11 03:08:04;;;;;;;9.65;4.60;;;12.50;99.90;;;;;;5033573;28;20049;-79
2022/05/11 03:10:29;;;;;;;9.38;4.75;;;12.50;99.90;;;;;;5019538;28;20100;-81
2022/05/11 03:12:55;;;;;;;11.65;4.40;;;12.60;99.90;;;;;;5038400;28;20474;-80
2022/05/11 03:15:21;;;;;;;8.43;4.95;;;12.60;99.90;;;;;;5038680;28;20049;-78
2022/05/11 03:17:47;;;;;;;10.85;4.22;;;12.60;99.90;;;;;;5039348;28;20539;-78
2022/05/11 03:20:12;;;;;;;16.98;5.55;;;12.60;99.90;;;;;;5054796;28;20041;-81
2022/05/11 03:22:38;;;;;;;12.40;4.78;;;12.60;99.90;;;;;;5018296;28;20078;-79
2022/05/11 03:25:05;;;;;;;13.82;5.45;;;12.60;99.90;;;;;;5034385;28;20046;-78
2022/05/11 03:27:31;;;;;;;10.45;5.10;;;12.60;99.90;;;;;;5019665;28;20041;-79
2022/05/11 03:29:56;;;;;;;11.02;5.57;;;12.60;99.90;;;;;;5019315;28;20410;-79
2022/05/11 03:35:11;;;;;;;10.95;5.10;;;12.70;99.90;;;;;;5057164;28;20052;-80
2022/05/11 03:37:37;;;;;;;9.30;4.40;;;12.60;99.90;;;;;;5058922;28;20037;-80
2022/05/11 03:40:07;;;;;;;11.88;5.55;;;12.70;99.90;;;;;;5042110;28;20045;-79
2022/05/11 03:42:33;;;;;;;10.85;5.53;;;12.70;99.90;;;;;;5039020;28;20042;-79
2022/05/11 03:45:21;;;;;;;9.88;4.68;;;12.70;99.90;;;;;;5034288;28;20053;-80
2022/05/11 03:47:47;;;;;;;14.88;5.82;;;12.70;99.90;;;;;;5019611;28;20049;-79
2022/05/11 03:50:15;;;;;;;12.88;5.10;;;12.70;99.90;;;;;;5019637;28;20129;-80
2022/05/11 03:52:41;;;;;;;9.20;5.30;;;12.70;99.90;;;;;;5034857;28;20498;-78
2022/05/11 03:55:11;;;;;;;11.95;5.28;;;12.70;99.90;;;;;;5020385;28;20034;-79
2022/05/11 03:57:38;;;;;;;10.90;4.68;;;12.70;99.90;;;;;;5018577;28;20045;-79
2022/05/11 04:00:07;;;;;;;10.23;5.65;;;12.70;99.90;;;;;;5017226;28;20107;-79
2022/05/11 04:02:32;;;;;;;10.85;4.80;;;12.70;99.90;;;;;;5018702;28;20486;-79
2022/05/11 04:04:58;;;;;;;9.93;4.72;;;12.80;99.90;;;;;;5018017;28;20038;-79
2022/05/11 04:07:24;;;;;;;11.75;4.93;;;12.70;99.90;;;;;;5017469;28;20042;-79
2022/05/11 04:09:50;;;;;;;12.55;5.38;;;12.80;99.90;;;;;;5017769;28;20081;-79
2022/05/11 04:12:15;;;;;;;11.43;4.95;;;12.80;99.90;;;;;;5029514;28;20041;-79
2022/05/11 04:14:42;;;;;;;10.88;3.92;;;12.80;99.90;;;;;;5037704;28;20045;-78
2022/05/11 04:17:07;;;;;;;11.63;4.70;;;13.60;99.90;;;;;;5038933;28;20064;-78
2022/05/11 04:19:33;;;;;;;12.60;4.97;;;12.90;99.90;;;;;;5038831;28;20041;-79
2022/05/11 04:21:58;;;;;;;8.55;4.10;;;12.90;99.90;;;;;;5037279;28;20041;-78
2022/05/11 04:24:24;;;;;;;12.57;4.72;;;13.00;99.90;;;;;;5038626;28;20176;-80
2022/05/11 04:26:50;;;;;;;13.43;5.03;;;13.00;99.90;;;;;;5038636;28;20126;-79
2022/05/11 04:29:16;;;;;;;15.48;4.38;;;13.00;99.90;;;;;;5040475;28;20041;-78
2022/05/11 04:31:43;;;;;;;11.98;4.47;;;13.00;99.90;;;;;;5040095;28;20084;-79
2022/05/11 04:34:11;;;;;;;16.92;4.10;;;13.10;99.90;;;;;;5054372;28;20103;-79
2022/05/11 04:36:39;;;;;;;8.13;4.00;;;13.00;99.90;;;;;;5046073;28;20076;-79
2022/05/11 04:39:05;;;;;;;9.95;4.47;;;13.10;99.90;;;;;;5023901;28;20121;-79
2022/05/11 04:41:31;;;;;;;9.30;4.65;;;13.10;99.90;;;;;;5029920;28;20052;-79
2022/05/11 04:43:56;;;;;;;9.52;4.25;;;13.10;99.90;;;;;;5039105;28;20037;-80
2022/05/11 04:46:22;;;;;;;7.93;3.92;;;13.20;99.90;;;;;;5039171;28;20196;-78
2022/05/11 04:48:47;;;;;;;7.38;3.78;;;13.30;99.90;;;;;;5040114;28;20045;-80
2022/05/11 04:51:13;;;;;;;10.63;4.78;;;13.30;99.90;;;;;;5039390;28;20049;-79
2022/05/11 04:53:39;;;;;;;9.98;4.88;;;13.40;99.90;;;;;;5035138;28;20045;-78
2022/05/11 04:56:05;;;;;;;12.50;4.82;;;13.40;99.90;;;;;;5036105;28;20101;-80
2022/05/11 04:58:30;;;;;;;12.05;4.43;;;13.40;99.90;;;;;;5038158;28;20041;-78
2022/05/11 05:00:56;;;;;;;;;;;13.50;99.90;;;;;;5000800;28;1015550;-79
2022/05/11 05:03:22;;;;;;;11.07;5.00;;;13.50;99.90;;;;;;5036929;28;19996;-79
2022/05/11 05:05:49;;;;;;;11.82;4.55;;;13.40;99.90;;;;;;5035682;28;20761;-80
2022/05/11 05:08:14;;;;;;;11.32;4.82;;;13.40;99.90;;;;;;5035464;28;20041;-80
2022/05/11 05:10:41;;;;;;;12.32;4.72;;;13.50;99.90;;;;;;5035796;28;20053;-80
2022/05/11 05:13:10;;;;;;;11.02;4.55;;;13.60;99.90;;;;;;5042767;28;20054;-80
2022/05/11 05:15:38;;;;;;;8.45;3.90;;;13.70;99.90;;;;;;5035009;28;20053;-80
2022/05/11 05:18:06;;;;;;;13.98;4.43;;;13.70;99.90;;;;;;5035780;28;20103;-80
2022/05/11 05:20:32;;;;;;;12.75;4.97;;;13.80;99.90;;;;;;5033822;28;20053;-80
2022/05/11 05:22:58;;;;;;;9.90;4.43;;;13.80;99.90;;;;;;5035132;28;20080;-79
2022/05/11 05:25:25;;;;;;;9.98;3.80;;;13.90;99.90;;;;;;5035408;28;20046;-81
2022/05/11 05:27:52;;;;;;;9.77;5.57;;;14.00;99.90;;;;;;5037284;28;20045;-81
2022/05/11 05:33:03;;;;;;;13.05;4.20;;;14.10;99.90;;;;;;5037781;28;20584;-81
2022/05/11 05:35:29;;;;;;;12.38;4.35;;;14.10;99.90;;;;;;5036887;28;20046;-80
2022/05/11 05:37:54;;;;;;;12.93;4.63;;;14.20;99.90;;;;;;5038601;28;20113;-80
2022/05/11 05:40:21;;;;;;;10.30;4.22;;;14.20;99.90;;;;;;5042283;28;20033;-79
2022/05/11 05:42:48;;;;;;;9.25;4.32;;;14.30;99.90;;;;;;5046950;28;20049;-81
2022/05/11 05:45:14;;;;;;;9.50;3.65;;;14.30;99.90;;;;;;5058358;28;20052;-81
2022/05/11 05:47:40;;;;;;;14.52;4.63;;;14.40;99.90;;;;;;5058436;28;20045;-81
2022/05/11 05:50:07;;;;;;;10.40;4.78;;;14.50;99.90;;;;;;5058283;28;20040;-81
2022/05/11 05:52:33;;;;;;;12.70;4.88;;;14.50;99.90;;;;;;5058511;28;20072;-81
2022/05/11 05:54:58;;;;;;;11.15;4.57;;;14.60;99.90;;;;;;5058030;28;20030;-81
2022/05/11 05:57:26;;;;;;;11.73;4.13;;;14.70;99.90;;;;;;5058137;28;20049;-80
2022/05/11 05:59:51;;;;;;;10.65;4.10;;;14.90;99.90;;;;;;5057836;28;20053;-78
2022/05/11 06:02:17;;;;;;;14.07;4.88;;;15.00;99.90;;;;;;5073002;28;20175;-80
2022/05/11 06:04:49;;;;;;;11.90;4.07;;;15.10;99.90;;;;;;5040379;28;20088;-80
2022/05/11 06:07:16;;;;;;;12.52;4.70;;;15.20;99.90;;;;;;5037226;28;20496;-79
2022/05/11 06:09:42;;;;;;;9.98;4.32;;;15.30;99.90;;;;;;5035771;28;20149;-79
2022/05/11 06:12:10;;;;;;;8.85;4.07;;;15.30;99.90;;;;;;5034070;28;20084;-80
2022/05/11 06:14:36;;;;;;;10.65;4.35;;;15.40;99.90;;;;;;5035995;28;20381;-81
2022/05/11 06:17:03;;;;;;;8.77;4.82;;;15.40;99.90;;;;;;5037977;28;20053;-80
2022/05/11 06:19:29;;;;;;;14.13;5.47;;;15.40;99.90;;;;;;5052801;28;20041;-80
2022/05/11 06:21:55;;;;;;;13.05;4.55;;;15.50;99.90;;;;;;5053470;28;20034;-79
2022/05/11 06:24:20;;;;;;;11.07;3.92;;;15.50;99.90;;;;;;5053649;28;20055;-80
2022/05/11 06:26:46;;;;;;;10.98;4.75;;;15.50;99.90;;;;;;5052801;28;20045;-79
2022/05/11 06:29:12;;;;;;;10.57;4.53;;;15.50;99.90;;;;;;5037124;28;20078;-79
2022/05/11 06:31:38;;;;;;;12.98;4.50;;;15.70;99.90;;;;;;5034181;28;20037;-79
2022/05/11 06:34:03;;;;;;;12.48;4.70;;;15.80;99.90;;;;;;5034317;28;20091;-80
2022/05/11 06:36:29;;;;;;;15.60;5.70;;;15.90;99.90;;;;;;5036334;28;20393;-80
2022/05/11 06:38:56;;;;;;;13.85;4.15;;;16.10;99.90;;;;;;5037425;28;20045;-79
2022/05/11 06:41:24;;;;;;;14.77;4.53;;;16.20;99.90;;;;;;5038023;28;20041;-79
2022/05/11 06:43:51;;;;;;;16.40;4.38;;;16.30;99.90;;;;;;5037836;28;20034;-81
2022/05/11 06:46:18;;;;;;;18.80;5.78;;;16.60;99.90;;;;;;5035266;28;20042;-79
2022/05/11 06:48:45;;;;;;;12.63;5.22;;;16.80;99.90;;;;;;5036616;28;20041;-79
2022/05/11 06:51:11;;;;;;;10.25;4.45;;;16.90;99.90;;;;;;5036810;28;20052;-78
2022/05/11 06:59:20;;;;;;;13.85;5.32;;;16.90;99.90;;;;;;5035253;28;20452;-79
2022/05/11 07:02:03;;;;;;;10.23;4.82;;;16.80;99.90;;;;;;5036200;28;20103;-79
2022/05/11 07:04:33;;;;;;;14.63;5.18;;;16.80;99.90;;;;;;5036053;28;20132;-79
2022/05/11 07:07:00;;;;;;;13.02;5.00;;;16.80;99.90;;;;;;5036455;28;20045;-78
2022/05/11 07:09:28;;;;;;;13.93;5.63;;;16.80;99.90;;;;;;5036102;28;20576;-79
2022/05/11 07:14:39;;;;;;;14.00;5.18;;;16.70;99.90;;;;;;5037717;28;20049;-80
2022/05/11 07:17:05;;;;;;;17.92;5.65;;;16.60;99.90;;;;;;5038343;28;20045;-78
2022/05/11 07:19:33;;;;;;;11.80;4.38;;;17.00;99.90;;;;;;5037332;28;20041;-80
2022/05/11 07:21:58;;;;;;;13.77;5.80;;;16.60;99.90;;;;;;5039114;28;20445;-79
2022/05/11 07:24:24;;;;;;;13.32;4.55;;;16.70;99.90;;;;;;5038335;28;20044;-78
2022/05/11 07:26:50;;;;;;;12.43;4.80;;;16.90;99.90;;;;;;5038092;28;20409;-79
2022/05/11 07:29:15;;;;;;;17.45;4.20;;;17.20;99.90;;;;;;5038612;28;20042;-78
2022/05/11 07:31:42;;;;;;;9.35;3.67;;;17.60;99.90;;;;;;5038427;28;20120;-79
2022/05/11 07:34:08;;;;;;;9.65;4.35;;;18.30;99.90;;;;;;5037120;28;20046;-78
2022/05/11 07:36:33;;;;;;;12.88;4.38;;;18.80;95.70;;;;;;5037935;28;20048;-78
2022/05/11 07:38:59;;;;;;;11.63;3.55;;;18.70;94.50;;;;;;5037399;28;20037;-77
2022/05/11 07:41:24;;;;;;;12.98;4.30;;;18.70;94.10;;;;;;5038014;28;20042;-78
2022/05/11 07:43:50;;;;;;;12.65;3.60;;;18.60;90.80;;;;;;5037341;28;20045;-78
2022/05/11 07:46:16;;;;;;;19.83;4.68;;;18.80;87.10;;;;;;5036392;28;20061;-78
2022/05/11 07:48:41;;;;;;;13.88;3.90;;;19.20;85.30;;;;;;5037665;28;20072;-78
2022/05/11 07:51:07;;;;;;;14.80;4.22;;;20.00;75.20;;;;;;5037695;28;20508;-78
2022/05/11 07:53:33;;;;;;;14.02;3.83;;;20.30;66.70;;;;;;5037187;28;20128;-79
2022/05/11 08:01:27;;;;;;;9.13;3.20;;;20.60;59.20;;;;;;5034516;28;20087;-79
2022/05/11 08:03:53;;;;;;;8.95;3.30;;;20.20;52.70;;;;;;5036927;28;20558;-78
2022/05/11 08:06:21;;;;;;;16.50;4.53;;;19.90;57.70;;;;;;5036042;28;20045;-79
2022/05/11 08:08:47;;;;;;;13.20;4.18;;;19.30;63.00;;;;;;5034914;28;20098;-79
2022/05/11 08:11:12;;;;;;;15.05;2.80;;;19.00;66.40;;;;;;5036515;28;20046;-79
2022/05/11 08:13:38;;;;;;;11.77;2.70;;;19.00;65.70;;;;;;5036278;28;20425;-78
2022/05/11 08:16:04;;;;;;;13.38;3.08;;;19.00;64.20;;;;;;5035274;28;20033;-78
2022/05/11 08:18:29;;;;;;;19.60;3.13;;;19.20;63.40;;;;;;5036025;28;20049;-79
2022/05/11 08:20:55;;;;;;;14.57;3.17;;;19.60;58.60;;;;;;5035964;28;20037;-78
2022/05/11 08:23:21;;;;;;;14.90;2.95;;;19.70;58.20;;;;;;5035667;28;20037;-79
2022/05/11 08:25:49;;;;;;;15.25;3.10;;;19.70;54.20;;;;;;5035963;28;20049;-79
2022/05/11 08:28:20;;;;;;;14.50;2.85;;;19.70;56.10;;;;;;5035804;28;20052;-79
2022/05/11 08:33:33;;;;;;;12.18;2.95;;;20.50;49.30;;;;;;5035622;28;20540;-78
2022/05/11 08:36:04;;;;;;;13.13;2.70;;;21.10;32.50;;;;;;5035416;28;20053;-78
2022/05/11 08:38:33;;;;;;;11.43;2.75;;;20.80;30.40;;;;;;5035768;28;20063;-78
2022/05/11 08:41:19;;;;;;;12.68;2.80;;;20.70;34.90;;;;;;5035622;28;20042;-79
2022/05/11 08:43:46;;;;;;;6.35;1.77;;;20.40;30.70;;;;;;5035585;28;20049;-80
2022/05/11 08:46:49;;;;;;;9.32;2.63;;;20.10;33.30;;;;;;5035354;28;20064;-78
2022/05/11 08:49:26;;;;;;;17.75;3.58;;;19.90;37.90;;;;;;5035704;28;20045;-79
2022/05/11 08:52:01;;;;;;;11.90;2.60;;;19.90;38.50;;;;;;5035652;28;20084;-78
2022/05/11 08:54:33;;;;;;;13.82;3.25;;;20.20;37.60;;;;;;5036004;28;20042;-79
2022/05/11 08:57:00;;;;;;;13.45;3.17;;;20.50;33.90;;;;;;5035135;28;20049;-78
2022/05/11 08:59:29;;;;;;;13.02;3.35;;;20.50;30.00;;;;;;5049539;28;20041;-79
2022/05/11 09:02:23;;;;;;;9.23;2.50;;;20.50;31.10;;;;;;5052665;28;20081;-79
2022/05/11 09:04:55;;;;;;;10.90;2.47;;;20.50;30.90;;;;;;5052627;28;20037;-78
2022/05/11 09:07:22;;;;;;;17.10;2.85;;;20.70;28.80;;;;;;5053366;28;20073;-79
2022/05/11 09:09:50;;;;;;;11.32;2.80;;;21.30;27.10;;;;;;5053657;28;20136;-78
2022/05/11 09:12:16;;;;;;;9.85;2.28;;;21.80;19.70;;;;;;5050860;28;20049;-79
2022/05/11 09:14:55;;;;;;;7.85;2.15;;;22.00;16.50;;;;;;5051922;28;20053;-78
2022/05/11 09:17:34;;;;;;;12.32;3.38;;;22.10;13.20;;;;;;5050103;28;20045;-79
2022/05/11 09:20:10;;;;;;;12.32;2.13;;;21.80;12.90;;;;;;5035696;28;20521;-77
2022/05/11 09:22:42;;;;;;;16.50;3.38;;;21.30;14.40;;;;;;5033683;28;20049;-81
2022/05/11 09:25:20;;;;;;;10.38;2.05;;;21.90;14.40;;;;;;5039566;28;20045;-80
2022/05/11 09:27:48;;;;;;;10.90;2.03;;;22.30;12.50;;;;;;5056371;28;20171;-82
2022/05/11 09:30:20;;;;;;;10.57;2.78;;;22.60;10.60;;;;;;5056014;28;20024;-82
2022/05/11 09:32:47;;;;;;;11.30;2.92;;;22.60;6.90;;;;;;5056319;28;20040;-81
2022/05/11 09:35:33;;;;;;;10.57;2.92;;;22.90;6.20;;;;;;5056082;28;20101;-79
2022/05/11 09:38:01;;;;;;;12.85;2.20;;;22.40;7.00;;;;;;5071585;28;20025;-80
2022/05/11 09:40:29;;;;;;;12.98;2.38;;;21.60;9.80;;;;;;5047643;28;20087;-77
2022/05/11 09:43:04;;;;;;;12.75;1.80;;;20.90;14.90;;;;;;5032918;28;20397;-79
2022/05/11 09:45:47;;;;;;;10.43;2.28;;;20.70;19.00;;;;;;5032239;28;20055;-76
2022/05/11 09:48:19;;;;;;;11.10;2.70;;;20.80;19.70;;;;;;5031988;28;20444;-77
2022/05/11 09:50:47;;;;;;;17.80;3.00;;;20.80;20.40;;;;;;5031860;28;20387;-78
2022/05/11 09:53:38;;;;;;;17.05;2.80;;;20.70;21.10;;;;;;5030769;28;20037;-78
2022/05/11 09:56:34;;;;;;;16.15;2.75;;;20.90;22.10;;;;;;5031066;28;20099;-79
2022/05/11 09:59:22;;;;;;;15.13;3.40;;;21.60;20.10;;;;;;5014242;28;20062;-78
2022/05/11 10:01:52;;;;;;;12.18;2.45;;;22.20;15.20;;;;;;5030446;28;20164;-76
2022/05/11 10:04:28;;;;;;;12.90;2.63;;;22.80;13.40;;;;;;5030535;28;20045;-77
2022/05/11 10:06:55;;;;;;;8.80;2.80;;;23.40;7.30;;;;;;5046071;28;20057;-77
2022/05/11 10:09:37;;;;;;;12.52;2.42;;;23.70;5.10;;;;;;5030461;28;20076;-79
2022/05/11 10:12:05;;;;;;;7.88;2.00;;;23.70;1.00;;;;;;5030146;28;20448;-77
2022/05/11 10:23:09;;;;;;;10.00;1.83;;;24.20;1.00;;;;;;5030509;28;20053;-77
2022/05/11 10:25:43;;;;;;;7.20;1.95;;;24.20;1.00;;;;;;5030469;28;20045;-77
2022/05/11 10:28:34;;;;;;;10.55;1.85;;;23.90;1.00;;;;;;5029910;28;20045;-79
2022/05/11 10:31:16;;;;;;;9.25;2.65;;;24.00;1.00;;;;;;5029877;28;20049;-78
2022/05/11 10:33:47;;;;;;;9.77;1.75;;;23.50;1.00;;;;;;5044954;28;20042;-78
2022/05/11 10:36:38;;;;;;;11.75;1.70;;;22.70;1.00;;;;;;5029935;28;20049;-79
2022/05/11 10:39:38;;;;;;;9.85;1.92;;;22.20;1.00;;;;;;5029868;28;20133;-78
2022/05/11 10:42:12;;;;;;;6.10;1.50;;;22.00;1.00;;;;;;5025661;28;20096;-78
2022/05/11 10:44:49;;;;;;;11.90;2.05;;;22.20;1.00;;;;;;5029295;28;20049;-78
2022/05/11 10:47:23;;;;;;;9.25;2.00;;;22.50;1.00;;;;;;5028241;28;20620;-78
2022/05/11 10:50:07;;;;;;;9.80;2.28;;;22.70;1.00;;;;;;5029449;28;20053;-81
2022/05/11 10:53:06;;;;;;;9.23;1.90;;;22.10;1.00;;;;;;5029403;28;20468;-78
2022/05/11 10:56:09;;;;;;;12.95;1.95;;;21.70;2.60;;;;;;5029370;28;20504;-77
2022/05/11 10:58:56;;;;;;;10.07;1.85;;;21.90;1.00;;;;;;5029408;28;20528;-77
2022/05/11 11:01:25;;;;;;;7.90;1.90;;;22.30;1.00;;;;;;5028940;28;20132;-78
2022/05/11 11:03:56;;;;;;;9.18;2.22;;;22.60;1.00;;;;;;5028807;28;20072;-78
2022/05/11 11:09:47;;;;;;;7.13;1.30;;;22.70;1.00;;;;;;5029155;28;20054;-78
2022/05/11 11:12:39;;;;;;;5.72;1.30;;;22.80;1.00;;;;;;5018445;28;20046;-79
2022/05/11 11:15:10;;;;;;;5.97;1.23;;;23.20;1.00;;;;;;5029893;28;20072;-80
2022/05/11 11:17:36;;;;;;;18.05;1.83;;;23.50;1.00;;;;;;5031481;28;20061;-79
2022/05/11 11:20:06;;;;;;;16.85;1.67;;;23.70;1.00;;;;;;5031750;28;20049;-76
2022/05/11 11:23:00;;;;;;;12.30;1.83;;;23.90;1.00;;;;;;5033468;28;20049;-78
2022/05/11 11:25:27;;;;;;;8.20;1.13;;;24.20;1.00;;;;;;5039350;28;20100;-79
2022/05/11 11:28:09;;;;;;;8.02;1.35;;;24.40;1.00;;;;;;5038418;28;20059;-79
2022/05/11 11:30:36;;;;;;;5.18;1.15;;;24.60;1.00;;;;;;5042442;28;20111;-79
2022/05/11 11:33:11;;;;;;;4.30;1.17;;;24.90;1.00;;;;;;5044943;28;20094;-77
2022/05/11 11:35:52;;;;;;;7.47;1.52;;;25.00;1.00;;;;;;5063707;28;20049;-78
2022/05/11 11:38:28;;;;;;;5.57;1.77;;;24.90;1.00;;;;;;5058631;28;20064;-80
2022/05/11 11:41:19;;;;;;;3.65;1.30;;;25.00;1.00;;;;;;5058097;28;20068;-80
2022/05/11 11:43:53;;;;;;;13.75;1.67;;;25.20;1.00;;;;;;5058477;28;20050;-79
2022/05/11 11:46:40;;;;;;;5.97;1.10;;;25.50;1.00;;;;;;5058064;28;20068;-80
2022/05/11 11:49:18;;;;;;;6.78;1.42;;;25.60;1.00;;;;;;5046313;28;20037;-79
2022/05/11 11:52:00;;;;;;;8.18;1.42;;;25.70;1.00;;;;;;5039173;28;20508;-80
2022/05/11 11:54:39;;;;;;;4.70;1.20;;;26.10;1.00;;;;;;5039364;28;20105;-80
2022/05/11 11:57:23;;;;;;;6.75;1.40;;;25.60;1.00;;;;;;5039389;28;20060;-79
2022/05/11 11:59:54;;;;;;;7.97;1.80;;;25.70;1.00;;;;;;5036735;28;20081;-80
2022/05/11 12:02:36;;;;;;;7.63;1.25;;;25.80;1.00;;;;;;5037840;28;20037;-79
2022/05/11 12:05:07;;;;;;;8.95;1.50;;;25.70;1.00;;;;;;5038008;28;20072;-80
2022/05/11 12:16:08;;;;;;;8.48;1.85;;;24.80;1.00;;;;;;5037334;28;20187;-80
2022/05/11 12:18:38;;;;;;;8.68;2.00;;;24.70;1.00;;;;;;5038179;28;20405;-80
2022/05/11 12:21:08;;;;;;;8.27;1.98;;;25.20;1.00;;;;;;5039625;28;20052;-81
2022/05/11 12:23:37;;;;;;;8.43;1.58;;;24.50;1.00;;;;;;5040124;28;20054;-80
2022/05/11 12:26:08;;;;;;;6.95;1.52;;;25.00;1.00;;;;;;5039398;28;20068;-80
2022/05/11 12:28:43;;;;;;;5.15;1.48;;;25.00;1.00;;;;;;5038136;28;20084;-81
2022/05/11 12:31:21;;;;;;;9.82;2.70;;;24.40;1.00;;;;;;5038725;28;20524;-79
2022/05/11 12:33:54;;;;;;;6.53;1.70;;;25.20;1.00;;;;;;5038251;28;20056;-80
2022/05/11 12:36:37;;;;;;;9.73;2.00;;;25.90;1.00;;;;;;5038356;28;20041;-79
2022/05/11 12:39:04;;;;;;;6.88;1.60;;;25.80;1.00;;;;;;5039568;28;20041;-79
2022/05/11 12:41:31;;;;;;;10.40;1.80;;;26.10;1.00;;;;;;5038826;28;20064;-80
2022/05/11 12:44:05;;;;;;;11.07;1.77;;;26.20;1.00;;;;;;5038237;28;20437;-80
2022/05/11 12:46:35;;;;;;;16.83;1.92;;;26.10;1.00;;;;;;5038820;28;20068;-78
2022/05/11 12:49:02;;;;;;;14.40;2.13;;;25.40;1.00;;;;;;5053058;28;20044;-83
2022/05/11 12:51:52;;;;;;;11.40;3.30;;;25.10;1.00;;;;;;5059181;28;20044;-83
2022/05/11 12:54:21;;;;;;;7.53;1.48;;;26.60;1.00;;;;;;5059279;28;20060;-82
2022/05/11 12:57:11;;;;;;;10.82;2.28;;;25.70;1.00;;;;;;5059032;28;20043;-82
2022/05/11 12:59:38;;;;;;;9.20;1.83;;;25.80;1.00;;;;;;5058484;28;20065;-83
2022/05/11 13:02:30;;;;;;;15.10;2.40;;;25.40;1.00;;;;;;5058607;28;20037;-81
2022/05/11 13:04:58;;;;;;;8.27;1.73;;;24.80;1.00;;;;;;5038833;28;20041;-81
2022/05/11 13:07:30;;;;;;;8.07;1.98;;;24.30;1.00;;;;;;5036668;28;20120;-80
2022/05/11 13:09:59;;;;;;;7.72;2.00;;;25.00;1.00;;;;;;5035425;28;20405;-81
2022/05/11 13:12:26;;;;;;;14.73;2.00;;;25.40;1.00;;;;;;5035468;28;20069;-80
2022/05/11 13:14:55;;;;;;;11.18;2.10;;;25.10;1.00;;;;;;5037685;28;20091;-80
2022/05/11 13:17:25;;;;;;;8.68;1.85;;;25.20;1.00;;;;;;5038631;28;20052;-79
2022/05/11 13:20:01;;;;;;;11.52;2.42;;;24.90;1.00;;;;;;5038314;28;20152;-80
2022/05/11 13:22:29;;;;;;;8.73;2.25;;;25.30;1.00;;;;;;5038282;28;20045;-80
2022/05/11 13:25:06;;;;;;;10.85;2.17;;;25.20;1.00;;;;;;5037229;28;20056;-80
2022/05/11 13:27:49;;;;;;;14.55;2.50;;;25.50;1.00;;;;;;5037518;28;20166;-80
2022/05/11 13:30:24;;;;;;;8.73;1.90;;;26.30;1.00;;;;;;5035809;28;20038;-80
2022/05/11 13:32:51;;;;;;;13.15;1.77;;;25.90;1.00;;;;;;5036583;28;20073;-81
2022/05/11 13:35:33;;;;;;;9.07;1.90;;;25.80;1.00;;;;;;5037341;28;20080;-80
2022/05/11 13:38:10;;;;;;;14.05;2.78;;;25.60;1.00;;;;;;5037047;28;20037;-81
2022/05/11 13:41:04;;;;;;;10.73;1.98;;;25.50;1.00;;;;;;5036060;28;20049;-81
2022/05/11 13:43:33;;;;;;;11.82;2.05;;;25.50;1.00;;;;;;5034542;28;20074;-79
2022/05/11 13:46:11;;;;;;;9.38;2.05;;;25.20;1.00;;;;;;5038114;28;20037;-81
2022/05/11 13:48:44;;;;;;;11.45;2.45;;;25.00;1.00;;;;;;5037838;28;20129;-80